Aviation Digital Data Service (ADDS)

Output produced by METARs form (2036 UTC 01 October 2016)
found at http://aviationweather.gov/adds/metars/
 
KMFD 011740Z 0118/0218 18008KT P6SM BKN035 
     FM020200 18004KT 5SM -SHRA SCT008 OVC020 
     FM020800 20004KT 2SM BR BKN008 
     FM021400 23006KT P6SM BKN015